sensor_id;sensor_type;location;lat;lon;timestamp;pressure;altitude;pressure_sealevel;temperature;humidity
17521;BME280;8878;-33.370;-70.552;2022-12-05T00:00:19;91840.13;;;29.75;24.91
17521;BME280;8878;-33.370;-70.552;2022-12-05T00:02:49;91847.13;;;29.72;24.50
17521;BME280;8878;-33.370;-70.552;2022-12-05T00:05:18;91850.13;;;30.13;24.97
17521;BME280;8878;-33.370;-70.552;2022-12-05T00:07:48;91852.16;;;29.74;25.32
17521;BME280;8878;-33.370;-70.552;2022-12-05T00:10:17;91852.97;;;29.53;26.87
17521;BME280;8878;-33.370;-70.552;2022-12-05T00:12:47;91860.72;;;29.26;27.58
17521;BME280;8878;-33.370;-70.552;2022-12-05T00:15:16;91870.44;;;29.24;27.47
17521;BME280;8878;-33.370;-70.552;2022-12-05T00:17:47;91863.81;;;29.28;27.67
17521;BME280;8878;-33.370;-70.552;2022-12-05T00:20:16;91865.03;;;29.41;27.56
17521;BME280;8878;-33.370;-70.552;2022-12-05T00:22:46;91865.00;;;29.63;27.51
17521;BME280;8878;-33.370;-70.552;2022-12-05T00:25:16;91866.53;;;29.78;27.39
17521;BME280;8878;-33.370;-70.552;2022-12-05T00:27:45;91875.09;;;29.73;28.21
17521;BME280;8878;-33.370;-70.552;2022-12-05T00:30:15;91870.06;;;29.53;28.13
17521;BME280;8878;-33.370;-70.552;2022-12-05T00:32:44;91884.72;;;28.81;29.35
17521;BME280;8878;-33.370;-70.552;2022-12-05T00:35:15;91875.84;;;28.92;28.77
17521;BME280;8878;-33.370;-70.552;2022-12-05T00:37:44;91873.50;;;29.01;29.39
17521;BME280;8878;-33.370;-70.552;2022-12-05T00:40:14;91872.75;;;28.97;30.95
17521;BME280;8878;-33.370;-70.552;2022-12-05T00:42:43;91869.63;;;28.95;30.68
17521;BME280;8878;-33.370;-70.552;2022-12-05T00:45:12;91876.59;;;28.81;31.00
17521;BME280;8878;-33.370;-70.552;2022-12-05T00:47:42;91884.28;;;28.72;31.08
17521;BME280;8878;-33.370;-70.552;2022-12-05T00:50:11;91874.59;;;28.71;31.34
17521;BME280;8878;-33.370;-70.552;2022-12-05T00:52:42;91879.63;;;28.62;31.65
17521;BME280;8878;-33.370;-70.552;2022-12-05T00:55:13;91876.47;;;28.46;31.10
17521;BME280;8878;-33.370;-70.552;2022-12-05T00:57:42;91874.09;;;28.34;32.32
17521;BME280;8878;-33.370;-70.552;2022-12-05T01:00:12;91882.63;;;28.39;31.37
17521;BME280;8878;-33.370;-70.552;2022-12-05T01:02:41;91871.75;;;28.36;31.08
17521;BME280;8878;-33.370;-70.552;2022-12-05T01:05:11;91879.19;;;28.46;30.89
17521;BME280;8878;-33.370;-70.552;2022-12-05T01:07:42;91877.56;;;28.27;31.48
17521;BME280;8878;-33.370;-70.552;2022-12-05T01:10:12;91886.25;;;27.92;31.71
17521;BME280;8878;-33.370;-70.552;2022-12-05T01:12:41;91886.72;;;28.05;31.44
17521;BME280;8878;-33.370;-70.552;2022-12-05T01:15:11;91886.41;;;28.17;30.95
17521;BME280;8878;-33.370;-70.552;2022-12-05T01:17:40;91882.13;;;28.13;33.57
17521;BME280;8878;-33.370;-70.552;2022-12-05T01:20:10;91898.28;;;27.95;34.62
17521;BME280;8878;-33.370;-70.552;2022-12-05T01:22:41;91900.91;;;27.77;35.00
17521;BME280;8878;-33.370;-70.552;2022-12-05T01:25:11;91887.59;;;27.58;35.95
17521;BME280;8878;-33.370;-70.552;2022-12-05T01:27:40;91894.06;;;27.46;37.04
17521;BME280;8878;-33.370;-70.552;2022-12-05T01:30:10;91891.25;;;27.36;37.52
17521;BME280;8878;-33.370;-70.552;2022-12-05T01:32:39;91894.22;;;27.16;37.94
17521;BME280;8878;-33.370;-70.552;2022-12-05T01:35:09;91900.41;;;27.17;38.35
17521;BME280;8878;-33.370;-70.552;2022-12-05T01:37:39;91884.91;;;27.14;38.04
17521;BME280;8878;-33.370;-70.552;2022-12-05T01:40:10;91890.72;;;27.12;38.50
17521;BME280;8878;-33.370;-70.552;2022-12-05T01:42:39;91896.06;;;27.05;38.30
17521;BME280;8878;-33.370;-70.552;2022-12-05T01:45:17;91888.66;;;27.02;37.92
17521;BME280;8878;-33.370;-70.552;2022-12-05T01:47:50;91890.94;;;26.97;37.13
17521;BME280;8878;-33.370;-70.552;2022-12-05T01:50:20;91892.00;;;26.88;37.38
17521;BME280;8878;-33.370;-70.552;2022-12-05T01:52:49;91890.50;;;26.91;37.74
17521;BME280;8878;-33.370;-70.552;2022-12-05T01:55:21;91886.25;;;26.94;36.77
17521;BME280;8878;-33.370;-70.552;2022-12-05T01:57:51;91889.72;;;26.91;37.98
17521;BME280;8878;-33.370;-70.552;2022-12-05T02:00:21;91885.25;;;26.72;38.26
17521;BME280;8878;-33.370;-70.552;2022-12-05T02:02:52;91887.19;;;26.71;38.35
17521;BME280;8878;-33.370;-70.552;2022-12-05T02:05:25;91883.63;;;26.64;39.23
17521;BME280;8878;-33.370;-70.552;2022-12-05T02:07:57;91880.09;;;26.56;38.87
17521;BME280;8878;-33.370;-70.552;2022-12-05T02:10:33;91884.22;;;26.46;38.55
17521;BME280;8878;-33.370;-70.552;2022-12-05T02:13:12;91878.78;;;26.43;38.53
17521;BME280;8878;-33.370;-70.552;2022-12-05T02:15:48;91875.59;;;26.37;39.30
17521;BME280;8878;-33.370;-70.552;2022-12-05T02:18:38;91877.06;;;26.28;39.10
17521;BME280;8878;-33.370;-70.552;2022-12-05T02:21:25;91881.97;;;26.22;39.27
17521;BME280;8878;-33.370;-70.552;2022-12-05T02:27:02;91877.00;;;25.94;39.75
17521;BME280;8878;-33.370;-70.552;2022-12-05T02:32:49;91866.50;;;25.89;40.05
17521;BME280;8878;-33.370;-70.552;2022-12-05T02:35:33;91863.69;;;25.79;39.97
17521;BME280;8878;-33.370;-70.552;2022-12-05T02:38:14;91857.94;;;25.84;39.57
17521;BME280;8878;-33.370;-70.552;2022-12-05T02:40:52;91865.63;;;25.82;39.76
17521;BME280;8878;-33.370;-70.552;2022-12-05T02:43:29;91866.28;;;25.71;40.23
17521;BME280;8878;-33.370;-70.552;2022-12-05T02:46:04;91866.94;;;25.65;40.67
17521;BME280;8878;-33.370;-70.552;2022-12-05T02:48:38;91856.41;;;25.56;40.98
17521;BME280;8878;-33.370;-70.552;2022-12-05T02:51:11;91857.13;;;25.53;41.32
17521;BME280;8878;-33.370;-70.552;2022-12-05T02:53:43;91859.16;;;25.33;41.49
17521;BME280;8878;-33.370;-70.552;2022-12-05T02:56:14;91858.97;;;25.23;42.34
17521;BME280;8878;-33.370;-70.552;2022-12-05T02:58:50;91854.63;;;25.15;42.02
17521;BME280;8878;-33.370;-70.552;2022-12-05T03:01:23;91862.31;;;25.13;41.94
17521;BME280;8878;-33.370;-70.552;2022-12-05T03:03:55;91859.28;;;25.18;39.89
17521;BME280;8878;-33.370;-70.552;2022-12-05T03:06:28;91852.75;;;25.19;40.45
17521;BME280;8878;-33.370;-70.552;2022-12-05T03:09:01;91840.75;;;25.16;41.02
17521;BME280;8878;-33.370;-70.552;2022-12-05T03:11:35;91846.34;;;25.04;38.46
17521;BME280;8878;-33.370;-70.552;2022-12-05T03:14:10;91844.78;;;25.03;39.62
17521;BME280;8878;-33.370;-70.552;2022-12-05T03:16:45;91845.06;;;25.21;40.54
17521;BME280;8878;-33.370;-70.552;2022-12-05T03:19:23;91839.63;;;25.17;40.82
17521;BME280;8878;-33.370;-70.552;2022-12-05T03:21:57;91844.44;;;25.05;38.78
17521;BME280;8878;-33.370;-70.552;2022-12-05T03:24:32;91842.16;;;25.07;39.68
17521;BME280;8878;-33.370;-70.552;2022-12-05T03:27:08;91834.09;;;25.10;40.33
17521;BME280;8878;-33.370;-70.552;2022-12-05T03:29:45;91836.66;;;25.00;37.92
17521;BME280;8878;-33.370;-70.552;2022-12-05T03:32:21;91831.41;;;24.87;39.09
17521;BME280;8878;-33.370;-70.552;2022-12-05T03:35:01;91828.78;;;24.91;39.00
17521;BME280;8878;-33.370;-70.552;2022-12-05T03:37:42;91834.78;;;25.04;38.83
17521;BME280;8878;-33.370;-70.552;2022-12-05T03:40:20;91821.91;;;24.93;40.19
17521;BME280;8878;-33.370;-70.552;2022-12-05T03:42:57;91825.16;;;24.83;39.36
17521;BME280;8878;-33.370;-70.552;2022-12-05T03:45:35;91828.66;;;24.84;39.40
17521;BME280;8878;-33.370;-70.552;2022-12-05T03:48:09;91826.56;;;24.96;39.23
17521;BME280;8878;-33.370;-70.552;2022-12-05T03:50:45;91825.22;;;24.87;40.97
17521;BME280;8878;-33.370;-70.552;2022-12-05T03:53:18;91824.00;;;24.58;39.79
17521;BME280;8878;-33.370;-70.552;2022-12-05T03:55:56;91819.13;;;24.67;39.80
17521;BME280;8878;-33.370;-70.552;2022-12-05T03:58:40;91806.66;;;24.59;39.47
17521;BME280;8878;-33.370;-70.552;2022-12-05T04:01:12;91818.22;;;24.59;38.67
17521;BME280;8878;-33.370;-70.552;2022-12-05T04:03:47;91813.91;;;24.55;39.24
17521;BME280;8878;-33.370;-70.552;2022-12-05T04:06:21;91811.69;;;24.38;39.06
17521;BME280;8878;-33.370;-70.552;2022-12-05T04:08:56;91802.00;;;24.56;40.58
17521;BME280;8878;-33.370;-70.552;2022-12-05T04:11:28;91805.63;;;24.67;40.45
17521;BME280;8878;-33.370;-70.552;2022-12-05T04:14:03;91805.22;;;24.65;39.48
17521;BME280;8878;-33.370;-70.552;2022-12-05T04:16:37;91795.44;;;24.34;40.16
17521;BME280;8878;-33.370;-70.552;2022-12-05T04:19:27;91799.06;;;24.42;40.92
17521;BME280;8878;-33.370;-70.552;2022-12-05T04:22:21;91783.19;;;24.37;41.54
17521;BME280;8878;-33.370;-70.552;2022-12-05T04:24:50;91782.53;;;24.43;42.00
17521;BME280;8878;-33.370;-70.552;2022-12-05T04:27:41;91780.47;;;24.37;42.74
17521;BME280;8878;-33.370;-70.552;2022-12-05T04:30:17;91785.38;;;24.31;42.99
17521;BME280;8878;-33.370;-70.552;2022-12-05T04:32:54;91784.19;;;24.29;41.97
17521;BME280;8878;-33.370;-70.552;2022-12-05T04:35:31;91791.00;;;24.03;41.97
17521;BME280;8878;-33.370;-70.552;2022-12-05T04:38:05;91779.72;;;23.98;42.53
17521;BME280;8878;-33.370;-70.552;2022-12-05T04:40:39;91781.94;;;23.92;41.85
17521;BME280;8878;-33.370;-70.552;2022-12-05T04:43:11;91779.53;;;24.06;42.09
17521;BME280;8878;-33.370;-70.552;2022-12-05T04:45:43;91773.75;;;24.27;41.58
17521;BME280;8878;-33.370;-70.552;2022-12-05T04:48:14;91771.66;;;24.40;41.12
17521;BME280;8878;-33.370;-70.552;2022-12-05T04:50:46;91769.56;;;24.30;41.22
17521;BME280;8878;-33.370;-70.552;2022-12-05T04:53:18;91768.84;;;24.33;40.84
17521;BME280;8878;-33.370;-70.552;2022-12-05T04:55:51;91773.75;;;24.27;41.97
17521;BME280;8878;-33.370;-70.552;2022-12-05T04:58:23;91762.97;;;23.85;42.36
17521;BME280;8878;-33.370;-70.552;2022-12-05T05:00:58;91768.06;;;23.71;41.31
17521;BME280;8878;-33.370;-70.552;2022-12-05T05:03:34;91767.06;;;23.79;41.87
17521;BME280;8878;-33.370;-70.552;2022-12-05T05:06:07;91763.88;;;23.73;41.05
17521;BME280;8878;-33.370;-70.552;2022-12-05T05:08:49;91758.13;;;23.75;39.71
17521;BME280;8878;-33.370;-70.552;2022-12-05T05:11:21;91751.25;;;23.77;40.42
17521;BME280;8878;-33.370;-70.552;2022-12-05T05:13:51;91743.75;;;23.87;40.94
17521;BME280;8878;-33.370;-70.552;2022-12-05T05:16:22;91750.75;;;23.91;40.93
17521;BME280;8878;-33.370;-70.552;2022-12-05T05:18:51;91740.69;;;23.88;40.61
17521;BME280;8878;-33.370;-70.552;2022-12-05T05:21:23;91735.88;;;23.78;41.93
17521;BME280;8878;-33.370;-70.552;2022-12-05T05:23:55;91738.28;;;23.83;42.02
17521;BME280;8878;-33.370;-70.552;2022-12-05T05:26:26;91732.63;;;23.69;42.08
17521;BME280;8878;-33.370;-70.552;2022-12-05T05:28:57;91735.66;;;23.67;42.46
17521;BME280;8878;-33.370;-70.552;2022-12-05T05:31:26;91727.19;;;23.65;42.85
17521;BME280;8878;-33.370;-70.552;2022-12-05T05:33:57;91723.28;;;23.63;42.14
17521;BME280;8878;-33.370;-70.552;2022-12-05T05:36:27;91728.22;;;23.61;41.79
17521;BME280;8878;-33.370;-70.552;2022-12-05T05:38:59;91728.88;;;23.54;41.45
17521;BME280;8878;-33.370;-70.552;2022-12-05T05:41:30;91722.88;;;23.45;42.57
17521;BME280;8878;-33.370;-70.552;2022-12-05T05:44:01;91714.63;;;23.54;41.67
17521;BME280;8878;-33.370;-70.552;2022-12-05T05:46:33;91712.38;;;23.56;41.65
17521;BME280;8878;-33.370;-70.552;2022-12-05T05:49:03;91709.53;;;23.49;42.44
17521;BME280;8878;-33.370;-70.552;2022-12-05T05:51:34;91710.75;;;23.51;42.13
17521;BME280;8878;-33.370;-70.552;2022-12-05T05:54:05;91707.97;;;23.48;41.60
17521;BME280;8878;-33.370;-70.552;2022-12-05T05:56:35;91704.44;;;23.63;40.82
17521;BME280;8878;-33.370;-70.552;2022-12-05T05:59:05;91701.34;;;23.45;42.42
17521;BME280;8878;-33.370;-70.552;2022-12-05T06:01:35;91709.88;;;23.09;41.99
17521;BME280;8878;-33.370;-70.552;2022-12-05T06:04:04;91702.28;;;23.14;41.02
17521;BME280;8878;-33.370;-70.552;2022-12-05T06:06:33;91711.06;;;23.30;40.26
17521;BME280;8878;-33.370;-70.552;2022-12-05T06:09:05;91706.53;;;23.34;42.17
17521;BME280;8878;-33.370;-70.552;2022-12-05T06:11:35;91699.47;;;23.26;41.68
17521;BME280;8878;-33.370;-70.552;2022-12-05T06:14:05;91698.91;;;22.66;42.19
17521;BME280;8878;-33.370;-70.552;2022-12-05T06:16:35;91691.28;;;22.69;42.23
17521;BME280;8878;-33.370;-70.552;2022-12-05T06:19:04;91700.16;;;23.04;42.50
17521;BME280;8878;-33.370;-70.552;2022-12-05T06:21:33;91692.38;;;23.18;42.23
17521;BME280;8878;-33.370;-70.552;2022-12-05T06:24:06;91693.25;;;23.22;42.70
17521;BME280;8878;-33.370;-70.552;2022-12-05T06:26:36;91692.50;;;23.25;42.46
17521;BME280;8878;-33.370;-70.552;2022-12-05T06:29:06;91689.25;;;23.16;42.95
17521;BME280;8878;-33.370;-70.552;2022-12-05T06:31:35;91695.16;;;23.22;42.92
17521;BME280;8878;-33.370;-70.552;2022-12-05T06:34:04;91689.34;;;23.20;43.85
17521;BME280;8878;-33.370;-70.552;2022-12-05T06:36:34;91682.63;;;23.29;42.97
17521;BME280;8878;-33.370;-70.552;2022-12-05T06:39:05;91684.25;;;23.15;43.73
17521;BME280;8878;-33.370;-70.552;2022-12-05T06:41:35;91688.69;;;23.07;43.96
17521;BME280;8878;-33.370;-70.552;2022-12-05T06:44:05;91685.91;;;23.03;44.38
17521;BME280;8878;-33.370;-70.552;2022-12-05T06:46:34;91681.16;;;22.97;44.73
17521;BME280;8878;-33.370;-70.552;2022-12-05T06:49:03;91686.56;;;22.97;43.92
17521;BME280;8878;-33.370;-70.552;2022-12-05T06:51:32;91681.25;;;23.00;44.33
17521;BME280;8878;-33.370;-70.552;2022-12-05T06:54:02;91686.63;;;23.00;43.44
17521;BME280;8878;-33.370;-70.552;2022-12-05T06:56:33;91681.44;;;22.92;44.20
17521;BME280;8878;-33.370;-70.552;2022-12-05T06:59:02;91683.03;;;22.93;43.78
17521;BME280;8878;-33.370;-70.552;2022-12-05T07:01:31;91684.19;;;22.95;42.93
17521;BME280;8878;-33.370;-70.552;2022-12-05T07:04:10;91682.81;;;23.01;42.90
17521;BME280;8878;-33.370;-70.552;2022-12-05T07:06:40;91676.50;;;22.94;43.31
17521;BME280;8878;-33.370;-70.552;2022-12-05T07:09:10;91677.69;;;22.77;43.90
17521;BME280;8878;-33.370;-70.552;2022-12-05T07:11:41;91682.44;;;22.84;43.61
17521;BME280;8878;-33.370;-70.552;2022-12-05T07:14:11;91678.38;;;22.74;44.05
17521;BME280;8878;-33.370;-70.552;2022-12-05T07:16:40;91676.72;;;22.70;44.33
17521;BME280;8878;-33.370;-70.552;2022-12-05T07:19:10;91679.16;;;22.75;44.55
17521;BME280;8878;-33.370;-70.552;2022-12-05T07:21:39;91682.56;;;22.56;44.59
17521;BME280;8878;-33.370;-70.552;2022-12-05T07:24:08;91677.00;;;22.64;44.77
17521;BME280;8878;-33.370;-70.552;2022-12-05T07:26:39;91680.72;;;22.60;45.15
17521;BME280;8878;-33.370;-70.552;2022-12-05T07:29:09;91689.94;;;22.59;45.37
17521;BME280;8878;-33.370;-70.552;2022-12-05T07:31:38;91686.22;;;22.48;44.85
17521;BME280;8878;-33.370;-70.552;2022-12-05T07:34:08;91685.59;;;22.54;44.46
17521;BME280;8878;-33.370;-70.552;2022-12-05T07:36:37;91677.69;;;22.61;44.43
17521;BME280;8878;-33.370;-70.552;2022-12-05T07:39:06;91678.75;;;22.57;44.84
17521;BME280;8878;-33.370;-70.552;2022-12-05T07:41:35;91671.72;;;22.52;44.88
17521;BME280;8878;-33.370;-70.552;2022-12-05T07:44:08;91677.97;;;22.56;44.59
17521;BME280;8878;-33.370;-70.552;2022-12-05T07:46:39;91677.09;;;22.52;43.69
17521;BME280;8878;-33.370;-70.552;2022-12-05T07:49:08;91672.34;;;22.46;44.80
17521;BME280;8878;-33.370;-70.552;2022-12-05T07:51:39;91677.91;;;22.37;44.62
17521;BME280;8878;-33.370;-70.552;2022-12-05T07:54:08;91680.50;;;22.34;44.39
17521;BME280;8878;-33.370;-70.552;2022-12-05T07:56:37;91674.28;;;22.30;44.18
17521;BME280;8878;-33.370;-70.552;2022-12-05T07:59:09;91674.91;;;22.23;43.90
17521;BME280;8878;-33.370;-70.552;2022-12-05T08:01:39;91676.44;;;22.24;43.06
17521;BME280;8878;-33.370;-70.552;2022-12-05T08:04:08;91664.31;;;22.30;43.97
17521;BME280;8878;-33.370;-70.552;2022-12-05T08:06:37;91672.28;;;22.26;43.86
17521;BME280;8878;-33.370;-70.552;2022-12-05T08:09:06;91666.56;;;22.28;43.16
17521;BME280;8878;-33.370;-70.552;2022-12-05T08:11:36;91671.16;;;22.27;42.19
17521;BME280;8878;-33.370;-70.552;2022-12-05T08:14:08;91670.81;;;22.45;43.20
17521;BME280;8878;-33.370;-70.552;2022-12-05T08:16:38;91665.34;;;22.41;42.72
17521;BME280;8878;-33.370;-70.552;2022-12-05T08:19:09;91667.75;;;22.46;42.32
17521;BME280;8878;-33.370;-70.552;2022-12-05T08:21:39;91657.09;;;22.50;44.57
17521;BME280;8878;-33.370;-70.552;2022-12-05T08:24:09;91662.19;;;22.55;45.61
17521;BME280;8878;-33.370;-70.552;2022-12-05T08:26:40;91664.97;;;22.58;45.91
17521;BME280;8878;-33.370;-70.552;2022-12-05T08:29:12;91672.88;;;22.51;45.99
17521;BME280;8878;-33.370;-70.552;2022-12-05T08:31:43;91670.03;;;22.44;45.38
17521;BME280;8878;-33.370;-70.552;2022-12-05T08:34:14;91665.94;;;22.35;45.91
17521;BME280;8878;-33.370;-70.552;2022-12-05T08:36:43;91672.78;;;22.32;45.47
17521;BME280;8878;-33.370;-70.552;2022-12-05T08:39:15;91676.03;;;22.22;46.29
17521;BME280;8878;-33.370;-70.552;2022-12-05T08:41:45;91674.81;;;22.19;46.23
17521;BME280;8878;-33.370;-70.552;2022-12-05T08:44:17;91672.56;;;22.21;45.71
17521;BME280;8878;-33.370;-70.552;2022-12-05T08:46:48;91674.91;;;22.23;45.69
17521;BME280;8878;-33.370;-70.552;2022-12-05T08:49:17;91688.25;;;22.19;44.95
17521;BME280;8878;-33.370;-70.552;2022-12-05T08:51:47;91689.41;;;21.91;45.00
17521;BME280;8878;-33.370;-70.552;2022-12-05T08:54:16;91690.75;;;21.97;44.43
17521;BME280;8878;-33.370;-70.552;2022-12-05T08:56:46;91685.91;;;22.02;45.27
17521;BME280;8878;-33.370;-70.552;2022-12-05T08:59:19;91690.06;;;22.00;45.92
17521;BME280;8878;-33.370;-70.552;2022-12-05T09:01:49;91689.00;;;22.04;45.83
17521;BME280;8878;-33.370;-70.552;2022-12-05T09:04:20;91691.28;;;22.02;45.86
17521;BME280;8878;-33.370;-70.552;2022-12-05T09:06:49;91692.88;;;21.91;45.81
17521;BME280;8878;-33.370;-70.552;2022-12-05T09:09:18;91694.28;;;21.85;45.70
17521;BME280;8878;-33.370;-70.552;2022-12-05T09:11:48;91693.50;;;21.84;46.42
17521;BME280;8878;-33.370;-70.552;2022-12-05T09:14:19;91698.69;;;21.77;46.49
17521;BME280;8878;-33.370;-70.552;2022-12-05T09:16:48;91703.34;;;21.65;46.09
17521;BME280;8878;-33.370;-70.552;2022-12-05T09:19:18;91702.13;;;21.62;45.67
17521;BME280;8878;-33.370;-70.552;2022-12-05T09:21:50;91705.88;;;21.73;45.44
17521;BME280;8878;-33.370;-70.552;2022-12-05T09:24:19;91706.31;;;21.91;44.49
17521;BME280;8878;-33.370;-70.552;2022-12-05T09:26:49;91707.75;;;22.01;44.70
17521;BME280;8878;-33.370;-70.552;2022-12-05T09:29:20;91713.53;;;22.03;44.73
17521;BME280;8878;-33.370;-70.552;2022-12-05T09:31:51;91714.91;;;21.97;45.40
17521;BME280;8878;-33.370;-70.552;2022-12-05T09:34:21;91720.53;;;21.92;45.01
17521;BME280;8878;-33.370;-70.552;2022-12-05T09:36:51;91721.97;;;22.01;44.50
17521;BME280;8878;-33.370;-70.552;2022-12-05T09:39:22;91722.75;;;22.02;44.84
17521;BME280;8878;-33.370;-70.552;2022-12-05T09:42:12;91731.31;;;22.07;45.16
17521;BME280;8878;-33.370;-70.552;2022-12-05T09:45:03;91728.19;;;22.05;44.90
17521;BME280;8878;-33.370;-70.552;2022-12-05T09:47:40;91725.84;;;22.04;44.56
17521;BME280;8878;-33.370;-70.552;2022-12-05T09:50:16;91735.13;;;22.06;44.60
17521;BME280;8878;-33.370;-70.552;2022-12-05T09:55:45;91740.94;;;22.08;44.11
17521;BME280;8878;-33.370;-70.552;2022-12-05T09:58:24;91741.97;;;22.04;43.94
17521;BME280;8878;-33.370;-70.552;2022-12-05T10:01:01;91738.59;;;22.07;44.45
17521;BME280;8878;-33.370;-70.552;2022-12-05T10:03:39;91741.09;;;22.00;45.16
17521;BME280;8878;-33.370;-70.552;2022-12-05T10:06:14;91742.31;;;22.02;44.91
17521;BME280;8878;-33.370;-70.552;2022-12-05T10:08:59;91746.66;;;22.07;45.26
17521;BME280;8878;-33.370;-70.552;2022-12-05T10:11:40;91748.22;;;22.08;45.15
17521;BME280;8878;-33.370;-70.552;2022-12-05T10:14:17;91744.03;;;21.95;44.28
17521;BME280;8878;-33.370;-70.552;2022-12-05T10:16:53;91750.47;;;22.06;44.74
17521;BME280;8878;-33.370;-70.552;2022-12-05T10:19:26;91754.09;;;22.13;44.61
17521;BME280;8878;-33.370;-70.552;2022-12-05T10:22:00;91755.75;;;22.02;43.81
17521;BME280;8878;-33.370;-70.552;2022-12-05T10:24:35;91756.50;;;22.03;43.42
17521;BME280;8878;-33.370;-70.552;2022-12-05T10:27:07;91761.38;;;22.13;43.75
17521;BME280;8878;-33.370;-70.552;2022-12-05T10:29:41;91763.31;;;22.28;44.18
17521;BME280;8878;-33.370;-70.552;2022-12-05T10:32:19;91766.16;;;22.51;43.22
17521;BME280;8878;-33.370;-70.552;2022-12-05T10:34:50;91764.84;;;22.60;43.34
17521;BME280;8878;-33.370;-70.552;2022-12-05T10:37:22;91766.59;;;22.37;43.19
17521;BME280;8878;-33.370;-70.552;2022-12-05T10:39:52;91776.28;;;22.26;42.47
17521;BME280;8878;-33.370;-70.552;2022-12-05T10:42:25;91775.44;;;22.53;42.01
17521;BME280;8878;-33.370;-70.552;2022-12-05T10:44:58;91782.72;;;22.69;41.60
17521;BME280;8878;-33.370;-70.552;2022-12-05T10:47:30;91783.94;;;22.71;41.40
17521;BME280;8878;-33.370;-70.552;2022-12-05T10:50:06;91778.19;;;22.88;40.94
17521;BME280;8878;-33.370;-70.552;2022-12-05T10:52:36;91784.72;;;22.87;40.46
17521;BME280;8878;-33.370;-70.552;2022-12-05T10:55:06;91786.00;;;22.93;40.84
17521;BME280;8878;-33.370;-70.552;2022-12-05T10:57:36;91789.09;;;23.11;40.53
17521;BME280;8878;-33.370;-70.552;2022-12-05T11:00:11;91797.75;;;23.20;40.22
17521;BME280;8878;-33.370;-70.552;2022-12-05T11:02:47;91797.41;;;23.22;40.59
17521;BME280;8878;-33.370;-70.552;2022-12-05T11:05:27;91789.69;;;23.39;40.10
17521;BME280;8878;-33.370;-70.552;2022-12-05T11:07:58;91797.25;;;23.69;39.92
17521;BME280;8878;-33.370;-70.552;2022-12-05T11:10:32;91792.28;;;23.90;39.74
17521;BME280;8878;-33.370;-70.552;2022-12-05T11:13:14;91791.13;;;24.10;38.71
17521;BME280;8878;-33.370;-70.552;2022-12-05T11:15:45;91793.47;;;24.31;39.37
17521;BME280;8878;-33.370;-70.552;2022-12-05T11:18:28;91789.41;;;24.41;36.19
17521;BME280;8878;-33.370;-70.552;2022-12-05T11:21:13;91803.88;;;24.33;35.59
17521;BME280;8878;-33.370;-70.552;2022-12-05T11:23:48;91801.31;;;24.63;35.89
17521;BME280;8878;-33.370;-70.552;2022-12-05T11:26:32;91802.41;;;24.35;35.97
17521;BME280;8878;-33.370;-70.552;2022-12-05T11:29:02;91806.59;;;24.33;36.49
17521;BME280;8878;-33.370;-70.552;2022-12-05T11:31:32;91808.69;;;24.66;36.02
17521;BME280;8878;-33.370;-70.552;2022-12-05T11:34:10;91810.38;;;24.51;35.29
17521;BME280;8878;-33.370;-70.552;2022-12-05T11:36:47;91810.78;;;24.53;34.78
17521;BME280;8878;-33.370;-70.552;2022-12-05T11:39:17;91808.94;;;24.34;34.19
17521;BME280;8878;-33.370;-70.552;2022-12-05T11:41:59;91811.09;;;24.48;34.04
17521;BME280;8878;-33.370;-70.552;2022-12-05T11:44:54;91811.78;;;24.45;35.10
17521;BME280;8878;-33.370;-70.552;2022-12-05T11:50:49;91817.56;;;24.66;34.70
17521;BME280;8878;-33.370;-70.552;2022-12-05T11:53:31;91812.78;;;24.56;35.35
17521;BME280;8878;-33.370;-70.552;2022-12-05T11:56:13;91813.97;;;24.81;35.82
17521;BME280;8878;-33.370;-70.552;2022-12-05T11:58:55;91814.75;;;25.05;35.13
17521;BME280;8878;-33.370;-70.552;2022-12-05T12:01:36;91821.72;;;25.06;35.13
17521;BME280;8878;-33.370;-70.552;2022-12-05T12:04:33;91825.75;;;25.19;34.83
17521;BME280;8878;-33.370;-70.552;2022-12-05T12:07:21;91819.28;;;25.80;35.32
17521;BME280;8878;-33.370;-70.552;2022-12-05T12:10:01;91827.09;;;25.58;33.45
17521;BME280;8878;-33.370;-70.552;2022-12-05T12:12:38;91826.56;;;25.76;33.67
17521;BME280;8878;-33.370;-70.552;2022-12-05T12:15:28;91829.34;;;25.26;33.67
17521;BME280;8878;-33.370;-70.552;2022-12-05T12:18:07;91832.94;;;25.60;33.31
17521;BME280;8878;-33.370;-70.552;2022-12-05T12:20:48;91834.38;;;25.54;33.33
17521;BME280;8878;-33.370;-70.552;2022-12-05T12:23:32;91842.53;;;25.31;33.72
17521;BME280;8878;-33.370;-70.552;2022-12-05T12:26:09;91828.81;;;25.70;32.83
17521;BME280;8878;-33.370;-70.552;2022-12-05T12:28:45;91830.69;;;25.96;32.36
17521;BME280;8878;-33.370;-70.552;2022-12-05T12:31:39;91838.84;;;25.69;32.76
17521;BME280;8878;-33.370;-70.552;2022-12-05T12:34:27;91839.94;;;25.95;32.36
17521;BME280;8878;-33.370;-70.552;2022-12-05T12:37:02;91842.59;;;25.91;32.14
17521;BME280;8878;-33.370;-70.552;2022-12-05T12:39:50;91845.28;;;26.21;32.28
17521;BME280;8878;-33.370;-70.552;2022-12-05T12:42:25;91847.31;;;25.98;31.62
17521;BME280;8878;-33.370;-70.552;2022-12-05T12:45:29;91841.41;;;25.89;31.79
17521;BME280;8878;-33.370;-70.552;2022-12-05T12:48:11;91847.22;;;25.91;31.69
17521;BME280;8878;-33.370;-70.552;2022-12-05T12:50:43;91843.94;;;26.08;30.88
17521;BME280;8878;-33.370;-70.552;2022-12-05T12:53:37;91851.66;;;26.36;30.56
17521;BME280;8878;-33.370;-70.552;2022-12-05T12:56:21;91853.66;;;26.42;30.67
17521;BME280;8878;-33.370;-70.552;2022-12-05T12:58:58;91858.13;;;26.65;30.84
17521;BME280;8878;-33.370;-70.552;2022-12-05T13:01:36;91857.88;;;26.40;30.77
17521;BME280;8878;-33.370;-70.552;2022-12-05T13:04:11;91855.41;;;26.65;31.24
17521;BME280;8878;-33.370;-70.552;2022-12-05T13:06:46;91864.16;;;26.51;30.71
17521;BME280;8878;-33.370;-70.552;2022-12-05T13:09:21;91862.88;;;26.75;30.65
17521;BME280;8878;-33.370;-70.552;2022-12-05T13:11:58;91866.03;;;27.24;31.10
17521;BME280;8878;-33.370;-70.552;2022-12-05T13:14:30;91872.44;;;27.02;30.06
17521;BME280;8878;-33.370;-70.552;2022-12-05T13:17:02;91870.00;;;26.90;30.54
17521;BME280;8878;-33.370;-70.552;2022-12-05T13:19:40;91869.41;;;27.14;29.87
17521;BME280;8878;-33.370;-70.552;2022-12-05T13:22:11;91870.66;;;27.20;30.06
17521;BME280;8878;-33.370;-70.552;2022-12-05T13:24:41;91870.25;;;27.18;29.71